Time;durP1;ratioP1;P1;durP2;ratioP2;P2;SDS_P1;SDS_P2;PMS_P1;PMS_P2;Temp;Humidity;BMP_temperature;BMP_pressure;BME280_temperature;BME280_humidity;BME280_pressure;Samples;Min_cycle;Max_cycle;Signal;HPM_P1;HPM_P2
2023/03/16 00:01:45;;;;;;;4.13;3.03;;;0.30;99.90;;;;;;5054957;28;20296;-65
2023/03/16 00:04:12;;;;;;;4.28;2.40;;;0.30;99.90;;;;;;5054444;28;20218;-66
2023/03/16 00:06:39;;;;;;;8.23;2.28;;;0.30;99.90;;;;;;5054744;28;20747;-66
2023/03/16 00:09:06;;;;;;;2.85;2.45;;;0.30;99.90;;;;;;5054911;28;20240;-69
2023/03/16 00:11:32;;;;;;;5.55;3.33;;;0.20;99.90;;;;;;5054216;28;20576;-66
2023/03/16 00:14:02;;;;;;;9.02;3.00;;;0.20;99.90;;;;;;5054706;28;20233;-66
2023/03/16 00:16:29;;;;;;;11.00;3.13;;;0.20;99.90;;;;;;5058168;28;20217;-65
2023/03/16 00:18:58;;;;;;;3.25;2.80;;;0.10;99.90;;;;;;5060587;28;20213;-65
2023/03/16 00:21:25;;;;;;;4.30;3.00;;;0.20;99.90;;;;;;5061469;28;20687;-65
2023/03/16 00:23:52;;;;;;;7.32;2.90;;;0.10;99.90;;;;;;5059967;28;20221;-66
2023/03/16 00:26:19;;;;;;;5.30;3.15;;;0.10;99.90;;;;;;5057533;28;20202;-65
2023/03/16 00:28:46;;;;;;;3.20;2.60;;;0.10;99.90;;;;;;5059267;28;20233;-66
2023/03/16 00:31:13;;;;;;;4.07;3.03;;;0.10;99.90;;;;;;5058487;28;20205;-64
2023/03/16 00:33:41;;;;;;;4.00;2.97;;;0.10;99.90;;;;;;5057912;28;20224;-65
2023/03/16 00:36:10;;;;;;;3.20;2.55;;;0.10;99.90;;;;;;5057488;28;20309;-65
2023/03/16 00:38:38;;;;;;;4.85;2.80;;;0.10;99.90;;;;;;5057581;28;20205;-65
2023/03/16 00:41:07;;;;;;;4.30;2.65;;;0.10;99.90;;;;;;5057344;28;20212;-63
2023/03/16 00:43:39;;;;;;;4.88;2.40;;;0.10;99.90;;;;;;5057217;28;20198;-65
2023/03/16 00:46:07;;;;;;;4.85;2.70;;;0.10;99.90;;;;;;5056715;28;20178;-65
2023/03/16 00:48:35;;;;;;;3.63;2.30;;;0.10;99.90;;;;;;5056823;28;20202;-64
2023/03/16 00:51:03;;;;;;;6.95;2.92;;;0.20;99.90;;;;;;5057545;28;20210;-64
2023/03/16 00:53:32;;;;;;;5.03;2.95;;;0.20;99.90;;;;;;5058296;28;20221;-65
2023/03/16 00:56:03;;;;;;;4.57;2.70;;;0.20;99.90;;;;;;5057962;28;20617;-66
2023/03/16 00:58:34;;;;;;;4.85;3.00;;;0.20;99.90;;;;;;5057866;28;20198;-64
2023/03/16 01:01:01;;;;;;;5.38;2.92;;;0.30;99.90;;;;;;5058513;28;20268;-64
2023/03/16 01:03:28;;;;;;;4.90;2.80;;;0.20;99.90;;;;;;5057418;28;20293;-65
2023/03/16 01:05:58;;;;;;;3.42;2.60;;;0.30;99.90;;;;;;5057192;28;20202;-64
2023/03/16 01:08:26;;;;;;;7.18;2.85;;;0.30;99.90;;;;;;5056059;28;20247;-65
2023/03/16 01:10:55;;;;;;;3.63;2.80;;;0.20;99.90;;;;;;5056687;28;20201;-65
2023/03/16 01:13:22;;;;;;;8.20;3.47;;;0.20;99.90;;;;;;5057362;28;20216;-65
2023/03/16 01:15:50;;;;;;;5.00;2.72;;;0.20;99.90;;;;;;5055507;28;20224;-65
2023/03/16 01:18:17;;;;;;;8.70;2.83;;;0.20;99.90;;;;;;5055512;28;20201;-65
2023/03/16 01:20:49;;;;;;;5.00;2.40;;;0.20;99.90;;;;;;5055644;28;20205;-64
2023/03/16 01:23:16;;;;;;;3.80;2.80;;;0.20;99.90;;;;;;5055528;28;20630;-64
2023/03/16 01:25:46;;;;;;;4.43;3.10;;;0.10;99.90;;;;;;5055317;28;20226;-65
2023/03/16 01:28:14;;;;;;;4.88;2.67;;;0.10;99.90;;;;;;5056078;28;20202;-65
2023/03/16 01:30:43;;;;;;;7.07;2.97;;;0.10;99.90;;;;;;5055250;28;20212;-65
2023/03/16 01:33:10;;;;;;;4.35;2.13;;;0.00;99.90;;;;;;5055302;28;20676;-65
2023/03/16 01:35:37;;;;;;;6.05;2.83;;;0.00;99.90;;;;;;5055635;28;20218;-64
2023/03/16 01:38:04;;;;;;;5.25;3.40;;;0.00;99.90;;;;;;5055329;28;20221;-65
2023/03/16 01:40:31;;;;;;;2.70;2.17;;;0.00;99.90;;;;;;5056289;28;20205;-63
2023/03/16 01:43:03;;;;;;;5.88;2.53;;;0.00;99.90;;;;;;5055553;28;20576;-64
2023/03/16 01:46:22;;;;;;;3.80;2.95;;;-0.10;99.90;;;;;;5055108;28;20661;-65
2023/03/16 01:49:04;;;;;;;3.35;2.67;;;-0.10;99.90;;;;;;5055502;28;20190;-65
2023/03/16 01:51:35;;;;;;;6.72;2.60;;;-0.10;99.90;;;;;;5055697;28;20268;-64
2023/03/16 01:54:06;;;;;;;2.80;2.50;;;-0.10;99.90;;;;;;5055510;28;20221;-65
2023/03/16 01:56:38;;;;;;;4.47;2.15;;;-0.10;99.90;;;;;;5055524;28;20214;-65
2023/03/16 01:59:09;;;;;;;3.58;2.90;;;-0.10;99.90;;;;;;5055420;28;20186;-64
2023/03/16 02:01:36;;;;;;;5.47;3.20;;;-0.10;99.90;;;;;;5055634;28;20208;-65
2023/03/16 02:04:14;;;;;;;4.30;3.58;;;-0.10;99.90;;;;;;5055793;28;20217;-65
2023/03/16 02:06:42;;;;;;;3.72;3.00;;;-0.10;99.90;;;;;;5054770;28;20187;-65
2023/03/16 02:09:10;;;;;;;5.82;2.70;;;-0.10;99.90;;;;;;5055437;28;20201;-65
2023/03/16 02:11:37;;;;;;;5.10;2.78;;;-0.10;99.90;;;;;;5055901;28;20209;-65
2023/03/16 02:14:09;;;;;;;2.78;2.20;;;-0.20;99.90;;;;;;5054975;28;20323;-65
2023/03/16 02:16:37;;;;;;;5.65;2.60;;;-0.20;99.90;;;;;;5054978;28;20210;-65
2023/03/16 02:19:11;;;;;;;3.70;2.60;;;-0.20;99.90;;;;;;5054896;28;20221;-64
2023/03/16 02:21:47;;;;;;;3.75;3.45;;;-0.20;99.90;;;;;;5055450;28;20255;-64
2023/03/16 02:24:14;;;;;;;6.25;3.08;;;-0.20;99.90;;;;;;5054377;28;20224;-64
2023/03/16 02:26:47;;;;;;;4.35;2.17;;;-0.20;99.90;;;;;;5054962;28;20194;-64
2023/03/16 02:29:24;;;;;;;6.22;3.30;;;-0.20;99.90;;;;;;5055044;28;20186;-66
2023/03/16 02:31:54;;;;;;;3.65;2.80;;;-0.20;99.90;;;;;;5054849;28;20186;-65
2023/03/16 02:34:21;;;;;;;4.05;2.35;;;-0.20;99.90;;;;;;5055116;28;20222;-64
2023/03/16 02:36:51;;;;;;;5.45;3.10;;;-0.20;99.90;;;;;;5054923;28;20221;-65
2023/03/16 02:39:18;;;;;;;4.38;3.10;;;-0.20;99.90;;;;;;5055084;28;20614;-64
2023/03/16 02:41:45;;;;;;;9.55;2.78;;;-0.20;99.90;;;;;;5054838;28;20212;-63
2023/03/16 02:44:15;;;;;;;4.13;2.60;;;-0.20;99.90;;;;;;5054891;28;20610;-64
2023/03/16 02:46:43;;;;;;;4.07;2.50;;;-0.30;99.90;;;;;;5054610;28;20192;-65
2023/03/16 02:49:17;;;;;;;2.63;2.38;;;-0.30;99.90;;;;;;5054001;28;20526;-63
2023/03/16 02:51:45;;;;;;;6.55;3.00;;;-0.30;99.90;;;;;;5054257;28;20280;-64
2023/03/16 02:54:12;;;;;;;3.60;2.58;;;-0.30;99.90;;;;;;5054123;28;20224;-65
2023/03/16 02:56:39;;;;;;;9.10;3.10;;;-0.30;99.90;;;;;;5054566;28;20221;-65
2023/03/16 02:59:06;;;;;;;5.20;3.10;;;-0.30;99.90;;;;;;5054315;28;20206;-65
2023/03/16 03:01:33;;;;;;;5.47;2.55;;;-0.40;99.90;;;;;;5054325;28;20205;-64
2023/03/16 03:04:00;;;;;;;3.10;2.80;;;-0.40;99.90;;;;;;5054016;28;20275;-64
2023/03/16 03:06:28;;;;;;;4.53;3.35;;;-0.40;99.90;;;;;;5054475;28;20201;-64
2023/03/16 03:08:55;;;;;;;5.45;2.70;;;-0.30;99.90;;;;;;5054267;28;20205;-66
2023/03/16 03:11:22;;;;;;;3.33;2.50;;;-0.30;99.90;;;;;;5054271;28;20212;-65
2023/03/16 03:13:49;;;;;;;5.03;2.60;;;-0.30;99.90;;;;;;5053827;28;20218;-65
2023/03/16 03:16:16;;;;;;;3.05;2.40;;;-0.30;99.90;;;;;;5054411;28;20201;-64
2023/03/16 03:18:43;;;;;;;4.25;2.67;;;-0.30;99.90;;;;;;5054250;28;20211;-66
2023/03/16 03:21:10;;;;;;;2.55;2.10;;;-0.20;99.90;;;;;;5053886;28;20201;-66
2023/03/16 03:23:38;;;;;;;5.78;2.78;;;-0.20;99.90;;;;;;5053993;28;20229;-65
2023/03/16 03:26:05;;;;;;;6.30;2.53;;;-0.20;99.90;;;;;;5053781;28;20579;-64
2023/03/16 03:28:33;;;;;;;5.57;2.63;;;-0.20;99.90;;;;;;5053963;28;20200;-65
2023/03/16 03:31:00;;;;;;;7.88;2.88;;;-0.20;99.90;;;;;;5053676;28;20675;-65
2023/03/16 03:33:27;;;;;;;3.33;2.30;;;-0.20;99.90;;;;;;5054029;28;20206;-65
2023/03/16 03:35:55;;;;;;;4.75;2.60;;;-0.20;99.90;;;;;;5055331;28;20209;-66
2023/03/16 03:38:22;;;;;;;5.10;2.85;;;-0.30;99.90;;;;;;5054696;28;20228;-65
2023/03/16 03:40:51;;;;;;;5.20;2.58;;;-0.30;99.90;;;;;;5054556;28;20233;-65
2023/03/16 03:43:18;;;;;;;2.60;2.40;;;-0.30;99.90;;;;;;5054747;28;20781;-66
2023/03/16 03:45:45;;;;;;;3.97;2.47;;;-0.30;99.90;;;;;;5054937;28;20742;-65
2023/03/16 03:48:12;;;;;;;3.47;2.25;;;-0.40;99.90;;;;;;5054710;28;20276;-65
2023/03/16 03:50:39;;;;;;;6.70;2.90;;;-0.40;99.90;;;;;;5055020;28;20204;-65
2023/03/16 03:53:06;;;;;;;2.97;2.10;;;-0.40;99.90;;;;;;5054631;28;20201;-66
2023/03/16 03:55:33;;;;;;;6.10;2.10;;;-0.40;99.90;;;;;;5055038;28;20228;-65
2023/03/16 03:58:01;;;;;;;3.30;2.58;;;-0.40;99.90;;;;;;5055605;28;20635;-64
2023/03/16 04:00:28;;;;;;;3.05;2.60;;;-0.50;99.90;;;;;;5056275;28;20202;-64
2023/03/16 04:02:55;;;;;;;3.10;2.08;;;-0.40;99.90;;;;;;5055115;28;20201;-65
2023/03/16 04:05:24;;;;;;;5.90;2.38;;;-0.40;99.90;;;;;;5055418;28;20218;-65
2023/03/16 04:11:22;;;;;;;4.85;2.50;;;-0.50;99.90;;;;;;5091907;28;20611;-63
2023/03/16 04:13:52;;;;;;;3.70;2.28;;;-0.40;99.90;;;;;;5090986;28;20227;-64
2023/03/16 04:16:18;;;;;;;3.75;2.08;;;-0.40;99.90;;;;;;5091305;28;20292;-66
2023/03/16 04:18:45;;;;;;;4.78;2.03;;;-0.40;99.90;;;;;;5091641;28;20597;-64
2023/03/16 04:21:17;;;;;;;6.47;2.20;;;-0.40;99.90;;;;;;5092298;28;20315;-64
2023/03/16 04:23:44;;;;;;;2.08;1.88;;;-0.40;99.90;;;;;;5091585;28;20700;-65
2023/03/16 04:26:11;;;;;;;6.18;2.45;;;-0.40;99.90;;;;;;5102912;22;20232;-61
2023/03/16 04:28:39;;;;;;;3.35;2.10;;;-0.40;99.90;;;;;;5078994;28;20204;-61
2023/03/16 04:31:07;;;;;;;3.53;2.60;;;-0.40;99.90;;;;;;5078874;28;20221;-61
2023/03/16 04:33:35;;;;;;;6.20;2.08;;;-0.40;99.90;;;;;;5079656;28;20273;-61
2023/03/16 04:36:02;;;;;;;4.00;2.15;;;-0.40;99.90;;;;;;5080163;28;20232;-60
2023/03/16 04:38:29;;;;;;;3.55;2.10;;;-0.40;99.90;;;;;;5086444;28;20273;-60
2023/03/16 04:40:56;;;;;;;5.20;2.35;;;-0.40;99.90;;;;;;5082941;28;20569;-61
2023/03/16 04:43:23;;;;;;;2.53;2.33;;;-0.40;99.90;;;;;;5070525;28;20219;-59
2023/03/16 04:45:51;;;;;;;5.10;2.38;;;-0.40;99.90;;;;;;5073403;28;20220;-60
2023/03/16 04:48:18;;;;;;;3.42;2.03;;;-0.30;99.90;;;;;;5072596;28;20711;-60
2023/03/16 04:50:48;;;;;;;3.75;1.95;;;-0.30;99.90;;;;;;5071519;28;20705;-60
2023/03/16 04:53:15;;;;;;;3.05;2.38;;;-0.30;99.90;;;;;;5071005;28;20197;-60
2023/03/16 04:55:41;;;;;;;3.03;1.80;;;-0.20;99.90;;;;;;5070749;28;20225;-60
2023/03/16 04:58:08;;;;;;;3.60;2.03;;;-0.20;99.90;;;;;;5071046;28;20208;-60
2023/03/16 05:00:35;;;;;;;12.07;2.03;;;-0.20;99.90;;;;;;5078465;28;20198;-61
2023/03/16 05:03:03;;;;;;;9.32;2.40;;;-0.20;99.90;;;;;;5081456;28;20213;-61
2023/03/16 05:05:30;;;;;;;2.50;1.60;;;-0.10;99.90;;;;;;5080851;28;20308;-61
2023/03/16 05:07:57;;;;;;;2.72;1.80;;;-0.10;99.90;;;;;;5079523;28;20209;-60
2023/03/16 05:10:24;;;;;;;5.30;2.70;;;0.00;99.90;;;;;;5078918;28;20228;-61
2023/03/16 05:12:51;;;;;;;4.68;2.00;;;0.00;99.90;;;;;;5078421;28;20246;-60
2023/03/16 05:15:18;;;;;;;2.33;1.80;;;0.00;99.90;;;;;;5076665;28;20240;-62
2023/03/16 05:17:45;;;;;;;3.60;1.95;;;0.00;99.90;;;;;;5055241;28;20260;-60
2023/03/16 05:20:14;;;;;;;7.07;2.00;;;0.10;99.90;;;;;;5052110;28;20198;-60
2023/03/16 05:22:41;;;;;;;3.28;2.42;;;0.10;99.90;;;;;;5038720;28;20206;-60
2023/03/16 05:25:13;;;;;;;5.25;1.90;;;0.10;99.90;;;;;;5037409;28;20244;-59
2023/03/16 05:27:41;;;;;;;2.20;1.92;;;0.20;99.90;;;;;;5036656;28;20222;-60
2023/03/16 05:30:09;;;;;;;5.47;1.88;;;0.20;99.90;;;;;;5036684;28;20248;-60
2023/03/16 05:32:36;;;;;;;3.45;1.95;;;0.30;99.90;;;;;;5036413;28;20590;-61
2023/03/16 05:35:03;;;;;;;3.50;2.45;;;0.30;99.90;;;;;;5036160;28;20272;-60
2023/03/16 05:37:31;;;;;;;4.72;2.17;;;0.40;99.90;;;;;;5036496;28;20248;-61
2023/03/16 05:39:58;;;;;;;5.78;2.17;;;0.40;99.90;;;;;;5052754;28;20202;-61
2023/03/16 05:42:25;;;;;;;3.30;1.85;;;0.40;99.90;;;;;;5057391;28;20208;-61
2023/03/16 05:44:52;;;;;;;7.63;2.75;;;0.50;99.90;;;;;;5056202;28;20248;-61
2023/03/16 05:47:20;;;;;;;4.30;1.80;;;0.50;99.90;;;;;;5055508;28;20208;-61
2023/03/16 05:49:46;;;;;;;4.57;2.20;;;0.60;99.90;;;;;;5054422;28;20217;-58
2023/03/16 05:52:13;;;;;;;2.80;2.05;;;0.60;99.90;;;;;;5059038;28;20227;-61
2023/03/16 05:54:42;;;;;;;7.80;3.13;;;0.70;99.90;;;;;;5055811;28;20230;-61
2023/03/16 05:57:09;;;;;;;4.90;2.20;;;0.70;99.90;;;;;;5055824;28;20216;-61
2023/03/16 05:59:36;;;;;;;7.82;2.90;;;0.80;99.90;;;;;;5055738;28;20208;-60
2023/03/16 06:02:03;;;;;;;3.67;2.30;;;0.80;99.90;;;;;;5055949;28;20201;-59
2023/03/16 06:04:30;;;;;;;3.33;1.95;;;0.90;99.90;;;;;;5056402;28;20221;-61
2023/03/16 06:06:57;;;;;;;5.40;2.20;;;1.00;99.90;;;;;;5056338;28;20210;-61
2023/03/16 06:09:23;;;;;;;3.95;2.65;;;1.10;99.90;;;;;;5059978;28;20208;-60
2023/03/16 06:11:52;;;;;;;3.72;2.20;;;1.20;99.90;;;;;;5068049;28;20308;-61
2023/03/16 06:14:19;;;;;;;3.92;2.30;;;1.30;99.90;;;;;;5068435;28;20232;-61
2023/03/16 06:16:45;;;;;;;4.00;2.13;;;1.40;99.90;;;;;;5066584;28;20270;-61
2023/03/16 06:19:12;;;;;;;3.45;2.40;;;1.50;99.90;;;;;;5066099;28;20203;-61
2023/03/16 06:21:39;;;;;;;2.05;1.75;;;1.60;99.90;;;;;;5064894;28;20204;-61
2023/03/16 06:24:07;;;;;;;3.58;2.35;;;1.80;99.90;;;;;;5058443;28;20198;-61
2023/03/16 06:26:34;;;;;;;2.60;2.40;;;1.90;99.90;;;;;;5056888;28;20198;-61
2023/03/16 06:29:03;;;;;;;7.43;2.40;;;2.00;99.90;;;;;;5057636;28;20311;-60
2023/03/16 06:31:30;;;;;;;3.95;2.08;;;2.10;99.90;;;;;;5056318;28;20267;-61
2023/03/16 06:33:56;;;;;;;2.30;2.10;;;2.20;99.90;;;;;;5055437;28;20201;-61
2023/03/16 06:36:23;;;;;;;3.05;2.20;;;2.30;99.90;;;;;;5055886;28;20308;-61
2023/03/16 06:38:50;;;;;;;2.50;2.20;;;2.40;99.90;;;;;;5056458;28;20208;-61
2023/03/16 06:41:17;;;;;;;3.63;2.35;;;2.40;99.90;;;;;;5055982;28;20212;-59
2023/03/16 06:43:44;;;;;;;3.75;1.80;;;2.40;99.90;;;;;;5056815;28;20750;-61
2023/03/16 06:46:12;;;;;;;4.22;2.80;;;2.40;99.90;;;;;;5055732;28;20248;-60
2023/03/16 06:48:40;;;;;;;4.80;2.50;;;2.50;99.90;;;;;;5056817;28;20218;-61
2023/03/16 06:51:07;;;;;;;6.72;2.67;;;2.50;99.90;;;;;;5056290;28;20217;-61
2023/03/16 06:53:34;;;;;;;3.10;2.60;;;2.60;99.90;;;;;;5055845;28;20208;-60
2023/03/16 06:56:01;;;;;;;5.72;2.83;;;2.60;99.90;;;;;;5055670;28;20710;-61
2023/03/16 06:58:27;;;;;;;2.13;1.90;;;2.70;99.90;;;;;;5056781;28;20202;-61
2023/03/16 07:00:54;;;;;;;2.92;2.42;;;2.80;99.90;;;;;;5058838;28;20193;-60
2023/03/16 07:03:22;;;;;;;3.13;2.20;;;2.90;99.90;;;;;;5049850;28;20202;-59
2023/03/16 07:05:49;;;;;;;5.07;2.05;;;2.90;99.90;;;;;;5076437;28;20327;-61
2023/03/16 07:08:16;;;;;;;3.92;2.40;;;3.00;99.90;;;;;;5077548;28;20298;-60
2023/03/16 07:10:43;;;;;;;6.25;2.75;;;3.00;99.90;;;;;;5075594;28;20219;-60
2023/03/16 07:13:10;;;;;;;6.75;2.90;;;3.10;99.90;;;;;;5075713;28;20205;-60
2023/03/16 07:15:36;;;;;;;5.03;2.88;;;3.10;99.90;;;;;;5075650;28;20220;-61
2023/03/16 07:18:03;;;;;;;3.83;2.60;;;3.20;99.90;;;;;;5075169;28;20211;-60
2023/03/16 07:20:32;;;;;;;4.10;2.75;;;3.30;99.90;;;;;;5075175;28;20201;-60
2023/03/16 07:22:58;;;;;;;3.90;2.53;;;3.40;99.90;;;;;;5075717;28;20205;-61
2023/03/16 07:25:25;;;;;;;5.43;2.20;;;3.50;99.90;;;;;;5074880;28;20255;-60
2023/03/16 07:27:52;;;;;;;4.88;3.20;;;3.60;99.90;;;;;;5074397;28;20205;-61
2023/03/16 07:30:19;;;;;;;5.82;3.20;;;3.60;99.90;;;;;;5075430;28;20225;-60
2023/03/16 07:32:46;;;;;;;4.15;2.70;;;3.70;99.90;;;;;;5074798;28;20200;-60
2023/03/16 07:35:15;;;;;;;5.50;2.70;;;3.80;99.90;;;;;;5073774;28;20740;-61
2023/03/16 07:37:44;;;;;;;4.28;3.00;;;3.90;99.90;;;;;;5074653;28;20197;-60
2023/03/16 07:40:12;;;;;;;6.97;3.50;;;4.00;99.90;;;;;;5075070;28;20201;-62
2023/03/16 07:42:39;;;;;;;6.60;2.53;;;4.10;99.90;;;;;;5075246;28;20208;-61
2023/03/16 07:45:08;;;;;;;6.18;3.03;;;4.30;99.90;;;;;;5074583;28;20225;-57
2023/03/16 07:47:35;;;;;;;6.90;2.33;;;4.40;99.90;;;;;;5077746;28;20259;-61
2023/03/16 07:50:02;;;;;;;5.45;3.72;;;4.60;99.90;;;;;;5076881;28;20270;-60
2023/03/16 07:52:29;;;;;;;3.17;2.30;;;4.70;99.60;;;;;;5075475;28;20201;-61
2023/03/16 07:54:57;;;;;;;4.80;3.05;;;4.90;99.00;;;;;;5076102;28;20312;-61
2023/03/16 07:57:23;;;;;;;8.55;2.45;;;5.00;98.60;;;;;;5074467;28;20284;-61
2023/03/16 07:59:50;;;;;;;3.08;2.45;;;5.20;98.40;;;;;;5075390;28;20663;-61
2023/03/16 08:02:20;;;;;;;4.43;2.42;;;5.30;97.50;;;;;;5075047;28;20194;-61
2023/03/16 08:04:47;;;;;;;3.10;2.05;;;5.30;97.10;;;;;;5074688;28;20286;-61
2023/03/16 08:07:15;;;;;;;2.95;2.28;;;5.30;96.50;;;;;;5074539;28;20580;-60
2023/03/16 08:09:42;;;;;;;4.20;2.22;;;5.30;95.60;;;;;;5076099;28;20210;-60
2023/03/16 08:12:11;;;;;;;5.63;2.63;;;5.40;95.10;;;;;;5074174;28;20231;-62
2023/03/16 08:14:38;;;;;;;2.33;1.75;;;5.40;94.30;;;;;;5074186;28;20628;-62
2023/03/16 08:17:06;;;;;;;7.25;2.08;;;5.50;93.40;;;;;;5073867;28;20211;-61
2023/03/16 08:19:33;;;;;;;4.65;2.65;;;5.60;93.00;;;;;;5075326;28;20626;-61
2023/03/16 08:22:00;;;;;;;5.47;2.00;;;5.70;92.30;;;;;;5073995;28;20200;-61
2023/03/16 08:24:28;;;;;;;3.25;1.75;;;5.80;91.50;;;;;;5073473;28;20268;-61
2023/03/16 08:26:55;;;;;;;1.92;1.73;;;6.00;90.90;;;;;;5074419;28;20252;-61
2023/03/16 08:29:23;;;;;;;2.60;1.70;;;6.10;89.70;;;;;;5074368;28;20201;-61
2023/03/16 08:31:50;;;;;;;6.63;2.00;;;6.20;87.60;;;;;;5074643;28;20217;-61
2023/03/16 08:34:17;;;;;;;7.45;2.53;;;6.30;86.70;;;;;;5074080;28;20700;-61
2023/03/16 08:36:44;;;;;;;3.70;1.67;;;6.30;85.00;;;;;;5073872;28;20201;-61
2023/03/16 08:39:11;;;;;;;4.40;2.30;;;6.50;84.70;;;;;;5074856;28;20216;-61
2023/03/16 08:41:39;;;;;;;6.75;2.33;;;6.60;82.10;;;;;;5073394;28;20644;-60
2023/03/16 08:44:07;;;;;;;3.83;1.95;;;6.80;80.60;;;;;;5073641;28;20577;-61
2023/03/16 08:46:35;;;;;;;2.00;1.80;;;6.90;78.60;;;;;;5074466;28;20291;-60
2023/03/16 08:49:02;;;;;;;2.10;1.70;;;7.00;77.40;;;;;;5074650;28;20498;-60
2023/03/16 08:51:29;;;;;;;3.10;1.60;;;7.00;75.80;;;;;;5074647;28;20260;-61
2023/03/16 08:53:56;;;;;;;5.30;2.05;;;7.10;75.00;;;;;;5073725;28;20204;-61
2023/03/16 08:56:23;;;;;;;5.38;1.75;;;7.10;73.60;;;;;;5075226;28;20221;-61
2023/03/16 08:58:50;;;;;;;4.45;1.80;;;7.10;73.00;;;;;;5078534;28;20205;-60
2023/03/16 09:01:18;;;;;;;5.85;1.83;;;7.20;72.00;;;;;;5078361;28;20271;-60
2023/03/16 09:03:46;;;;;;;3.92;1.83;;;7.20;71.10;;;;;;5077945;28;20204;-61
2023/03/16 09:06:15;;;;;;;2.45;1.65;;;7.30;70.10;;;;;;5077422;28;20308;-61
2023/03/16 09:08:44;;;;;;;7.55;1.70;;;7.40;69.30;;;;;;5076780;28;20268;-61
2023/03/16 09:11:13;;;;;;;3.90;1.67;;;7.50;68.40;;;;;;5076996;28;20221;-61
2023/03/16 09:13:41;;;;;;;2.13;1.55;;;7.50;66.80;;;;;;5076703;28;20213;-61
2023/03/16 09:16:09;;;;;;;3.78;1.98;;;7.50;65.80;;;;;;5077359;28;20297;-61
2023/03/16 09:18:36;;;;;;;1.77;1.23;;;7.50;65.10;;;;;;5077243;28;20205;-61
2023/03/16 09:21:07;;;;;;;4.75;2.22;;;7.60;64.40;;;;;;5076979;28;20234;-61
2023/03/16 09:23:36;;;;;;;2.92;1.65;;;7.60;63.50;;;;;;5076853;28;20202;-60
2023/03/16 09:26:06;;;;;;;3.45;1.70;;;7.70;63.00;;;;;;5076613;28;20239;-61
2023/03/16 09:28:34;;;;;;;5.20;1.77;;;7.90;62.50;;;;;;5076549;28;20579;-60
2023/03/16 09:31:02;;;;;;;7.13;1.95;;;8.00;61.80;;;;;;5076426;28;20410;-60
2023/03/16 09:33:30;;;;;;;1.77;1.60;;;8.20;60.90;;;;;;5076570;28;20348;-61
2023/03/16 09:35:58;;;;;;;3.90;2.20;;;8.40;60.20;;;;;;5076342;28;20728;-61
2023/03/16 09:38:26;;;;;;;2.17;1.35;;;8.50;59.60;;;;;;5075596;28;20642;-61
2023/03/16 09:40:59;;;;;;;6.47;1.58;;;8.70;59.10;;;;;;5076771;28;20553;-61
2023/03/16 09:44:01;;;;;;;3.95;1.70;;;8.80;58.40;;;;;;5077251;28;20558;-61
2023/03/16 09:46:31;;;;;;;1.65;1.23;;;9.00;57.90;;;;;;5055585;28;20223;-61
2023/03/16 09:48:59;;;;;;;2.20;1.80;;;9.00;57.00;;;;;;5076592;28;20204;-61
2023/03/16 09:51:38;;;;;;;1.98;1.58;;;9.00;56.40;;;;;;5075988;28;20724;-61
2023/03/16 09:54:18;;;;;;;4.25;1.60;;;9.00;55.80;;;;;;5077299;28;20631;-62
2023/03/16 09:56:49;;;;;;;1.83;1.27;;;8.90;55.10;;;;;;5077106;28;20185;-62
2023/03/16 09:59:17;;;;;;;1.88;1.13;;;8.90;54.80;;;;;;5076299;28;20653;-60
2023/03/16 10:02:10;;;;;;;2.28;1.50;;;8.90;54.50;;;;;;5076344;28;20332;-61
2023/03/16 10:04:44;;;;;;;4.07;1.60;;;8.80;54.00;;;;;;5076714;28;20225;-61
2023/03/16 10:07:24;;;;;;;4.50;1.40;;;8.90;54.00;;;;;;5076609;28;20193;-61
2023/03/16 10:09:57;;;;;;;3.85;1.40;;;9.00;53.60;;;;;;5077457;28;20191;-61
2023/03/16 10:12:29;;;;;;;3.58;1.88;;;9.20;53.30;;;;;;5077072;28;20209;-61
2023/03/16 10:15:03;;;;;;;2.30;1.20;;;9.30;52.90;;;;;;5077409;28;20224;-61
2023/03/16 10:17:35;;;;;;;2.75;1.05;;;9.40;52.50;;;;;;5076648;28;20185;-61
2023/03/16 10:20:07;;;;;;;2.45;1.40;;;9.40;52.80;;;;;;5077186;28;20185;-62
2023/03/16 10:22:37;;;;;;;2.97;1.55;;;9.50;52.20;;;;;;5076676;28;20223;-62
2023/03/16 10:25:11;;;;;;;4.18;1.25;;;9.60;51.90;;;;;;5095886;22;20232;-63
2023/03/16 10:27:40;;;;;;;2.17;1.50;;;9.70;51.50;;;;;;5056954;28;20188;-67
2023/03/16 10:30:19;;;;;;;2.63;1.40;;;9.80;51.10;;;;;;5056012;28;20202;-65
2023/03/16 10:32:47;;;;;;;2.90;1.40;;;9.80;50.70;;;;;;5055927;28;20297;-67
2023/03/16 10:35:27;;;;;;;4.00;1.35;;;9.90;50.60;;;;;;5055848;28;20456;-65
2023/03/16 10:37:55;;;;;;;3.97;1.58;;;9.90;50.20;;;;;;5055909;28;20201;-65
2023/03/16 10:40:23;;;;;;;1.67;1.03;;;10.00;49.10;;;;;;5055895;28;20288;-67
2023/03/16 10:42:50;;;;;;;3.97;2.70;;;10.00;48.80;;;;;;5056063;28;20479;-66
2023/03/16 10:45:25;;;;;;;2.13;1.30;;;10.00;48.50;;;;;;5055641;28;21054;-66
2023/03/16 10:47:53;;;;;;;3.13;1.77;;;10.10;48.30;;;;;;5055402;28;20775;-65
2023/03/16 10:50:24;;;;;;;3.40;1.20;;;10.20;47.90;;;;;;5055210;28;20954;-65
2023/03/16 10:52:52;;;;;;;1.97;1.67;;;10.20;47.80;;;;;;5056098;28;20468;-66
2023/03/16 10:55:25;;;;;;;6.20;1.67;;;10.40;47.90;;;;;;5056156;28;20465;-65
2023/03/16 10:57:53;;;;;;;2.63;1.60;;;10.50;47.30;;;;;;5055508;28;20527;-65
2023/03/16 11:00:25;;;;;;;3.30;1.60;;;10.40;46.60;;;;;;5055222;28;20520;-64
2023/03/16 11:02:54;;;;;;;2.80;1.47;;;10.40;46.90;;;;;;5055928;28;20425;-65
2023/03/16 11:05:29;;;;;;;3.03;1.37;;;10.60;47.00;;;;;;5055809;28;20988;-64
2023/03/16 11:08:00;;;;;;;2.90;1.60;;;10.70;46.70;;;;;;5055150;28;20432;-65
2023/03/16 11:10:34;;;;;;;2.67;1.30;;;10.70;46.40;;;;;;5055469;28;20448;-66
2023/03/16 11:13:11;;;;;;;5.07;2.10;;;10.80;46.40;;;;;;5056080;28;20468;-66
2023/03/16 11:15:45;;;;;;;3.17;1.47;;;10.90;46.40;;;;;;5055590;28;20554;-67
2023/03/16 11:18:23;;;;;;;5.00;1.90;;;11.10;46.20;;;;;;5055267;28;20436;-67
2023/03/16 11:20:51;;;;;;;12.23;2.03;;;11.20;45.80;;;;;;5054685;28;20493;-65
2023/03/16 11:23:25;;;;;;;17.43;3.30;;;11.20;45.80;;;;;;5056031;28;20441;-64
2023/03/16 11:25:55;;;;;;;3.57;1.77;;;11.30;45.90;;;;;;5055682;28;20508;-66
2023/03/16 11:28:32;;;;;;;3.03;1.67;;;11.30;45.70;;;;;;5055312;28;20818;-65
2023/03/16 11:31:08;;;;;;;1.70;1.10;;;11.20;44.90;;;;;;5055928;28;20804;-67
2023/03/16 11:33:36;;;;;;;3.20;1.53;;;11.20;44.60;;;;;;5055434;28;20472;-66
2023/03/16 11:36:19;;;;;;;9.50;2.00;;;11.20;44.40;;;;;;5056655;28;20554;-66
2023/03/16 11:38:54;;;;;;;4.40;1.87;;;11.30;44.50;;;;;;5057387;28;20419;-65
2023/03/16 11:41:28;;;;;;;3.53;1.80;;;11.50;44.80;;;;;;5056577;28;20426;-66
2023/03/16 11:44:00;;;;;;;2.80;1.80;;;11.70;44.60;;;;;;5055300;28;20527;-66
2023/03/16 11:46:30;;;;;;;2.90;1.70;;;11.80;44.40;;;;;;5056050;28;20473;-66
2023/03/16 11:49:20;;;;;;;5.47;2.20;;;11.80;44.10;;;;;;5055643;28;20954;-66
2023/03/16 11:51:55;;;;;;;2.90;1.53;;;11.80;43.70;;;;;;5056478;28;20472;-66
2023/03/16 11:54:39;;;;;;;2.53;1.47;;;11.80;43.60;;;;;;5056132;28;20507;-66
2023/03/16 11:57:19;;;;;;;2.43;1.60;;;11.80;43.30;;;;;;5057480;28;20491;-66
2023/03/16 12:00:09;;;;;;;2.40;1.60;;;11.80;43.30;;;;;;5055228;28;21028;-66
2023/03/16 12:02:47;;;;;;;3.50;1.53;;;11.60;43.00;;;;;;5056327;28;20417;-67
2023/03/16 12:05:53;;;;;;;6.33;2.13;;;11.50;43.00;;;;;;5056645;28;20605;-66
2023/03/16 12:08:46;;;;;;;2.20;1.30;;;11.40;43.00;;;;;;5050220;28;20454;-65
2023/03/16 12:11:20;;;;;;;3.20;1.40;;;11.50;43.30;;;;;;5056905;28;20429;-65
2023/03/16 12:14:02;;;;;;;3.43;1.50;;;11.60;42.80;;;;;;5056663;28;20485;-67
2023/03/16 12:16:33;;;;;;;4.40;1.93;;;11.70;42.70;;;;;;5056672;28;20443;-65
2023/03/16 12:19:03;;;;;;;2.60;1.50;;;11.90;42.70;;;;;;5055327;28;20436;-66
2023/03/16 12:21:34;;;;;;;2.27;1.40;;;12.00;42.70;;;;;;5055383;28;20445;-67
2023/03/16 12:24:03;;;;;;;2.77;1.60;;;12.00;42.00;;;;;;5055960;28;20460;-66
2023/03/16 12:26:33;;;;;;;4.77;1.67;;;12.00;42.00;;;;;;5054833;28;20469;-65
2023/03/16 12:29:21;;;;;;;2.90;1.50;;;11.90;41.70;;;;;;5055167;28;20426;-66
2023/03/16 12:31:54;;;;;;;2.57;1.60;;;11.80;41.50;;;;;;5056597;28;20468;-66
2023/03/16 12:34:30;;;;;;;4.37;1.40;;;11.90;41.50;;;;;;5058524;28;20460;-65
2023/03/16 12:37:11;;;;;;;2.20;1.33;;;12.00;41.60;;;;;;5057663;28;20429;-65
2023/03/16 12:40:11;;;;;;;2.70;1.20;;;12.00;41.30;;;;;;5058581;28;20451;-65
2023/03/16 12:43:05;;;;;;;1.70;1.30;;;12.10;41.30;;;;;;5051776;28;20446;-65
2023/03/16 12:45:40;;;;;;;1.00;0.90;;;12.00;40.90;;;;;;5059215;28;20552;-67
2023/03/16 12:48:16;;;;;;;2.63;1.50;;;12.20;40.60;;;;;;5059087;28;20445;-65
2023/03/16 12:50:51;;;;;;;1.63;1.13;;;12.20;39.40;;;;;;5058833;28;20434;-65
2023/03/16 12:53:42;;;;;;;2.60;1.37;;;12.20;39.30;;;;;;5058390;28;20480;-66
2023/03/16 12:56:12;;;;;;;2.60;1.70;;;12.10;39.40;;;;;;5058610;28;20466;-65
2023/03/16 12:58:47;;;;;;;2.57;1.77;;;12.10;40.20;;;;;;5058254;28;21000;-65
2023/03/16 13:01:18;;;;;;;3.23;2.03;;;12.20;40.90;;;;;;5059332;28;20474;-67
2023/03/16 13:03:50;;;;;;;5.30;1.87;;;12.30;41.30;;;;;;5058169;28;20665;-65
2023/03/16 13:06:20;;;;;;;4.40;1.57;;;12.40;41.70;;;;;;5059787;28;20449;-66
2023/03/16 13:08:51;;;;;;;3.60;1.67;;;12.50;42.00;;;;;;5058576;28;20526;-65
2023/03/16 13:11:19;;;;;;;4.37;1.70;;;12.50;42.30;;;;;;5059188;28;20781;-64